sensor_id;sensor_type;location;lat;lon;timestamp;pressure;altitude;pressure_sealevel;temperature;humidity
60974;BME280;46846;51.528;5.076;2022-09-11T00:01:11;101193.53;;;16.52;61.99
60974;BME280;46846;51.528;5.076;2022-09-11T00:03:40;101194.56;;;16.50;62.10
60974;BME280;46846;51.528;5.076;2022-09-11T00:06:09;101204.63;;;16.46;62.21
60974;BME280;46846;51.528;5.076;2022-09-11T00:08:36;101203.75;;;16.46;62.50
60974;BME280;46846;51.528;5.076;2022-09-11T00:11:04;101207.31;;;16.46;62.04
60974;BME280;46846;51.528;5.076;2022-09-11T00:13:31;101210.16;;;16.43;62.34
60974;BME280;46846;51.528;5.076;2022-09-11T00:15:57;101219.25;;;16.40;62.16
60974;BME280;46846;51.528;5.076;2022-09-11T00:18:23;101222.00;;;16.39;62.49
60974;BME280;46846;51.528;5.076;2022-09-11T00:20:53;101221.22;;;16.37;61.85
60974;BME280;46846;51.528;5.076;2022-09-11T00:23:21;101223.06;;;16.36;62.33
60974;BME280;46846;51.528;5.076;2022-09-11T00:25:47;101225.81;;;16.35;62.17
60974;BME280;46846;51.528;5.076;2022-09-11T00:28:20;101222.44;;;16.31;62.49
60974;BME280;46846;51.528;5.076;2022-09-11T00:30:55;101231.50;;;16.29;62.19
60974;BME280;46846;51.528;5.076;2022-09-11T00:33:20;101232.53;;;16.26;62.24
60974;BME280;46846;51.528;5.076;2022-09-11T00:35:56;101220.00;;;16.26;62.00
60974;BME280;46846;51.528;5.076;2022-09-11T00:38:26;101227.25;;;16.24;62.27
60974;BME280;46846;51.528;5.076;2022-09-11T00:40:54;101228.13;;;16.25;61.98
60974;BME280;46846;51.528;5.076;2022-09-11T00:43:20;101240.84;;;16.21;62.14
60974;BME280;46846;51.528;5.076;2022-09-11T00:45:48;101244.66;;;16.17;62.15
60974;BME280;46846;51.528;5.076;2022-09-11T00:48:19;101232.94;;;16.18;62.15
60974;BME280;46846;51.528;5.076;2022-09-11T00:50:47;101241.00;;;16.18;62.27
60974;BME280;46846;51.528;5.076;2022-09-11T00:53:14;101238.31;;;16.18;62.27
60974;BME280;46846;51.528;5.076;2022-09-11T00:55:45;101240.91;;;16.20;62.18
60974;BME280;46846;51.528;5.076;2022-09-11T00:58:14;101235.53;;;16.20;61.99
60974;BME280;46846;51.528;5.076;2022-09-11T01:00:43;101232.00;;;16.19;62.09
60974;BME280;46846;51.528;5.076;2022-09-11T01:03:09;101226.63;;;16.19;62.31
60974;BME280;46846;51.528;5.076;2022-09-11T01:05:37;101226.56;;;16.21;61.40
60974;BME280;46846;51.528;5.076;2022-09-11T01:08:03;101224.97;;;16.17;61.90
60974;BME280;46846;51.528;5.076;2022-09-11T01:18:51;101253.06;;;16.09;61.87
60974;BME280;46846;51.528;5.076;2022-09-11T01:24:02;101247.72;;;16.09;61.88
60974;BME280;46846;51.528;5.076;2022-09-11T01:26:46;101244.25;;;16.07;61.92
60974;BME280;46846;51.528;5.076;2022-09-11T01:29:55;101244.38;;;16.04;61.62
60974;BME280;46846;51.528;5.076;2022-09-11T01:33:04;101246.22;;;16.04;61.50
60974;BME280;46846;51.528;5.076;2022-09-11T01:38:11;101249.75;;;16.04;61.55
60974;BME280;46846;51.528;5.076;2022-09-11T01:41:07;101246.34;;;16.01;61.75
60974;BME280;46846;51.528;5.076;2022-09-11T01:44:44;101246.34;;;16.01;61.68
60974;BME280;46846;51.528;5.076;2022-09-11T01:46:40;101246.53;;;15.97;61.77
60974;BME280;46846;51.528;5.076;2022-09-11T01:49:27;101255.53;;;15.96;61.51
60974;BME280;46846;51.528;5.076;2022-09-11T01:51:58;101255.66;;;15.93;61.69
60974;BME280;46846;51.528;5.076;2022-09-11T01:54:30;101252.13;;;15.93;61.99
60974;BME280;46846;51.528;5.076;2022-09-11T01:57:02;101249.28;;;15.96;61.74
60974;BME280;46846;51.528;5.076;2022-09-11T01:59:41;101257.56;;;15.91;61.46
60974;BME280;46846;51.528;5.076;2022-09-11T02:02:10;101252.34;;;15.88;61.67
60974;BME280;46846;51.528;5.076;2022-09-11T02:04:45;101252.34;;;15.88;61.75
60974;BME280;46846;51.528;5.076;2022-09-11T02:07:27;101254.19;;;15.86;61.53
60974;BME280;46846;51.528;5.076;2022-09-11T02:09:59;101250.59;;;15.87;61.79
60974;BME280;46846;51.528;5.076;2022-09-11T02:12:29;101258.66;;;15.87;61.67
60974;BME280;46846;51.528;5.076;2022-09-11T02:14:59;101254.28;;;15.84;61.77
60974;BME280;46846;51.528;5.076;2022-09-11T02:17:56;101253.47;;;15.82;61.64
60974;BME280;46846;51.528;5.076;2022-09-11T02:20:24;101257.13;;;15.81;61.70
60974;BME280;46846;51.528;5.076;2022-09-11T02:22:50;101259.78;;;15.81;61.85
60974;BME280;46846;51.528;5.076;2022-09-11T02:25:17;101255.38;;;15.80;61.79
60974;BME280;46846;51.528;5.076;2022-09-11T02:27:42;101261.69;;;15.79;61.87
60974;BME280;46846;51.528;5.076;2022-09-11T02:30:08;101256.41;;;15.78;61.89
60974;BME280;46846;51.528;5.076;2022-09-11T02:32:35;101257.22;;;15.80;61.67
60974;BME280;46846;51.528;5.076;2022-09-11T02:35:02;101258.13;;;15.79;61.66
60974;BME280;46846;51.528;5.076;2022-09-11T02:38:02;101264.63;;;15.75;61.31
60974;BME280;46846;51.528;5.076;2022-09-11T02:43:23;101264.75;;;15.71;61.31
60974;BME280;46846;51.528;5.076;2022-09-11T02:46:03;101255.84;;;15.71;61.62
60974;BME280;46846;51.528;5.076;2022-09-11T02:49:08;101267.59;;;15.68;61.71
60974;BME280;46846;51.528;5.076;2022-09-11T02:54:34;101269.56;;;15.65;61.47
60974;BME280;46846;51.528;5.076;2022-09-11T02:57:13;101266.88;;;15.65;61.10
60974;BME280;46846;51.528;5.076;2022-09-11T03:00:04;101269.78;;;15.60;61.22
60974;BME280;46846;51.528;5.076;2022-09-11T03:02:32;101271.59;;;15.59;61.83
60974;BME280;46846;51.528;5.076;2022-09-11T03:05:00;101269.78;;;15.60;61.46
60974;BME280;46846;51.528;5.076;2022-09-11T03:07:25;101275.31;;;15.57;61.76
60974;BME280;46846;51.528;5.076;2022-09-11T03:09:51;101275.31;;;15.57;61.56
60974;BME280;46846;51.528;5.076;2022-09-11T03:12:17;101277.03;;;15.58;61.50
60974;BME280;46846;51.528;5.076;2022-09-11T03:14:43;101283.19;;;15.60;61.48
60974;BME280;46846;51.528;5.076;2022-09-11T03:17:08;101273.53;;;15.56;61.47
60974;BME280;46846;51.528;5.076;2022-09-11T03:19:34;101285.09;;;15.58;61.58
60974;BME280;46846;51.528;5.076;2022-09-11T03:22:00;101274.50;;;15.55;61.32
60974;BME280;46846;51.528;5.076;2022-09-11T03:24:26;101280.97;;;15.51;61.53
60974;BME280;46846;51.528;5.076;2022-09-11T03:26:51;101286.34;;;15.51;61.63
60974;BME280;46846;51.528;5.076;2022-09-11T03:29:17;101277.47;;;15.49;61.68
60974;BME280;46846;51.528;5.076;2022-09-11T03:31:42;101273.94;;;15.48;61.56
60974;BME280;46846;51.528;5.076;2022-09-11T03:34:08;101291.75;;;15.49;61.59
60974;BME280;46846;51.528;5.076;2022-09-11T03:36:35;101281.97;;;15.48;61.58
60974;BME280;46846;51.528;5.076;2022-09-11T03:39:00;101281.09;;;15.48;61.62
60974;BME280;46846;51.528;5.076;2022-09-11T03:41:26;101283.88;;;15.46;61.54
60974;BME280;46846;51.528;5.076;2022-09-11T03:43:51;101288.41;;;15.44;61.66
60974;BME280;46846;51.528;5.076;2022-09-11T03:46:17;101281.31;;;15.43;61.36
60974;BME280;46846;51.528;5.076;2022-09-11T03:48:43;101279.59;;;15.42;61.36
60974;BME280;46846;51.528;5.076;2022-09-11T03:51:12;101271.59;;;15.40;61.55
60974;BME280;46846;51.528;5.076;2022-09-11T03:53:40;101280.59;;;15.39;61.53
60974;BME280;46846;51.528;5.076;2022-09-11T03:56:05;101275.31;;;15.38;61.33
60974;BME280;46846;51.528;5.076;2022-09-11T03:58:30;101280.66;;;15.38;61.37
60974;BME280;46846;51.528;5.076;2022-09-11T04:00:56;101275.31;;;15.38;61.52
60974;BME280;46846;51.528;5.076;2022-09-11T04:03:21;101278.94;;;15.37;61.48
60974;BME280;46846;51.528;5.076;2022-09-11T04:06:00;101279.94;;;15.34;60.98
60974;BME280;46846;51.528;5.076;2022-09-11T04:08:27;101275.53;;;15.33;61.47
60974;BME280;46846;51.528;5.076;2022-09-11T04:10:58;101275.69;;;15.30;61.34
60974;BME280;46846;51.528;5.076;2022-09-11T04:13:32;101278.38;;;15.30;61.23
60974;BME280;46846;51.528;5.076;2022-09-11T04:16:03;101282.84;;;15.29;61.14
60974;BME280;46846;51.528;5.076;2022-09-11T04:18:30;101276.75;;;15.26;61.60
60974;BME280;46846;51.528;5.076;2022-09-11T04:20:57;101277.81;;;15.23;61.49
60974;BME280;46846;51.528;5.076;2022-09-11T04:23:22;101275.97;;;15.24;61.38
60974;BME280;46846;51.528;5.076;2022-09-11T04:25:48;101277.63;;;15.26;61.32
60974;BME280;46846;51.528;5.076;2022-09-11T04:28:14;101277.69;;;15.25;61.50
60974;BME280;46846;51.528;5.076;2022-09-11T04:30:39;101279.75;;;15.20;61.35
60974;BME280;46846;51.528;5.076;2022-09-11T04:33:06;101284.16;;;15.21;61.14
60974;BME280;46846;51.528;5.076;2022-09-11T04:35:32;101284.28;;;15.17;61.29
60974;BME280;46846;51.528;5.076;2022-09-11T04:38:00;101286.03;;;15.18;61.07
60974;BME280;46846;51.528;5.076;2022-09-11T04:40:26;101281.78;;;15.14;61.30
60974;BME280;46846;51.528;5.076;2022-09-11T04:42:51;101288.06;;;15.13;61.18
60974;BME280;46846;51.528;5.076;2022-09-11T04:45:16;101286.19;;;15.15;61.47
60974;BME280;46846;51.528;5.076;2022-09-11T04:47:43;101287.25;;;15.11;61.39
60974;BME280;46846;51.528;5.076;2022-09-11T04:50:08;101285.53;;;15.10;61.50
60974;BME280;46846;51.528;5.076;2022-09-11T04:52:34;101285.69;;;15.07;61.49
60974;BME280;46846;51.528;5.076;2022-09-11T04:54:59;101291.97;;;15.06;61.24
60974;BME280;46846;51.528;5.076;2022-09-11T04:57:28;101300.03;;;15.06;61.30
60974;BME280;46846;51.528;5.076;2022-09-11T04:59:54;101300.16;;;15.03;61.40
60974;BME280;46846;51.528;5.076;2022-09-11T05:02:20;101302.81;;;15.03;61.31
60974;BME280;46846;51.528;5.076;2022-09-11T05:04:46;101301.25;;;14.99;61.51
60974;BME280;46846;51.528;5.076;2022-09-11T05:07:11;101310.28;;;14.96;61.45
60974;BME280;46846;51.528;5.076;2022-09-11T05:09:38;101320.94;;;14.98;61.81
60974;BME280;46846;51.528;5.076;2022-09-11T05:12:04;101318.31;;;14.96;61.43
60974;BME280;46846;51.528;5.076;2022-09-11T05:14:29;101324.69;;;14.94;61.33
60974;BME280;46846;51.528;5.076;2022-09-11T05:16:57;101322.81;;;14.96;61.58
60974;BME280;46846;51.528;5.076;2022-09-11T05:19:22;101329.91;;;14.97;61.42
60974;BME280;46846;51.528;5.076;2022-09-11T05:21:49;101334.53;;;14.93;61.33
60974;BME280;46846;51.528;5.076;2022-09-11T05:24:15;101337.16;;;14.95;61.31
60974;BME280;46846;51.528;5.076;2022-09-11T05:26:40;101337.22;;;14.93;61.25
60974;BME280;46846;51.528;5.076;2022-09-11T05:29:11;101342.66;;;14.92;61.11
60974;BME280;46846;51.528;5.076;2022-09-11T05:31:37;101344.50;;;14.89;61.67
60974;BME280;46846;51.528;5.076;2022-09-11T05:34:04;101353.50;;;14.88;61.84
60974;BME280;46846;51.528;5.076;2022-09-11T05:36:30;101361.47;;;14.90;61.96
60974;BME280;46846;51.528;5.076;2022-09-11T05:38:57;101358.00;;;14.88;61.48
60974;BME280;46846;51.528;5.076;2022-09-11T05:41:22;101362.47;;;14.87;61.79
60974;BME280;46846;51.528;5.076;2022-09-11T05:43:49;101366.88;;;14.88;61.36
60974;BME280;46846;51.528;5.076;2022-09-11T05:46:17;101368.91;;;14.83;61.24
60974;BME280;46846;51.528;5.076;2022-09-11T05:48:43;101366.25;;;14.83;61.68
60974;BME280;46846;51.528;5.076;2022-09-11T05:51:19;101359.00;;;14.85;61.32
60974;BME280;46846;51.528;5.076;2022-09-11T05:53:46;101365.34;;;14.83;61.31
60974;BME280;46846;51.528;5.076;2022-09-11T05:56:17;101371.66;;;14.82;61.44
60974;BME280;46846;51.528;5.076;2022-09-11T05:58:44;101370.66;;;14.84;61.93
60974;BME280;46846;51.528;5.076;2022-09-11T06:01:18;101383.25;;;14.82;61.65
60974;BME280;46846;51.528;5.076;2022-09-11T06:03:44;101387.78;;;14.80;61.35
60974;BME280;46846;51.528;5.076;2022-09-11T06:06:13;101385.94;;;14.82;61.56
60974;BME280;46846;51.528;5.076;2022-09-11T06:08:40;101388.53;;;14.84;61.62
60974;BME280;46846;51.528;5.076;2022-09-11T06:11:10;101387.72;;;14.82;61.32
60974;BME280;46846;51.528;5.076;2022-09-11T06:13:38;101392.22;;;14.81;61.76
60974;BME280;46846;51.528;5.076;2022-09-11T06:16:08;101394.88;;;14.81;61.41
60974;BME280;46846;51.528;5.076;2022-09-11T06:18:34;101395.81;;;14.80;61.50
60974;BME280;46846;51.528;5.076;2022-09-11T06:21:01;101398.50;;;14.80;61.78
60974;BME280;46846;51.528;5.076;2022-09-11T06:23:27;101396.66;;;14.82;61.75
60974;BME280;46846;51.528;5.076;2022-09-11T06:25:53;101403.88;;;14.80;61.67
60974;BME280;46846;51.528;5.076;2022-09-11T06:28:22;101404.88;;;14.77;61.57
60974;BME280;46846;51.528;5.076;2022-09-11T06:30:51;101401.34;;;14.77;61.73
60974;BME280;46846;51.528;5.076;2022-09-11T06:33:17;101406.63;;;14.79;61.79
60974;BME280;46846;51.528;5.076;2022-09-11T06:35:55;101409.16;;;14.82;61.38
60974;BME280;46846;51.528;5.076;2022-09-11T06:38:21;101406.50;;;14.82;61.81
60974;BME280;46846;51.528;5.076;2022-09-11T06:40:47;101400.25;;;14.81;61.83
60974;BME280;46846;51.528;5.076;2022-09-11T06:43:12;101402.91;;;14.81;61.79
60974;BME280;46846;51.528;5.076;2022-09-11T06:45:39;101402.00;;;14.82;61.96
60974;BME280;46846;51.528;5.076;2022-09-11T06:48:05;101402.13;;;14.79;61.92
60974;BME280;46846;51.528;5.076;2022-09-11T06:50:30;101409.16;;;14.82;61.83
60974;BME280;46846;51.528;5.076;2022-09-11T06:53:04;101409.22;;;14.80;61.72
60974;BME280;46846;51.528;5.076;2022-09-11T06:55:29;101406.63;;;14.79;61.83
60974;BME280;46846;51.528;5.076;2022-09-11T06:57:55;101409.22;;;14.80;61.97
60974;BME280;46846;51.528;5.076;2022-09-11T07:00:20;101406.50;;;14.82;61.76
60974;BME280;46846;51.528;5.076;2022-09-11T07:02:45;101405.50;;;14.84;61.76
60974;BME280;46846;51.528;5.076;2022-09-11T07:05:11;101398.38;;;14.83;61.73
60974;BME280;46846;51.528;5.076;2022-09-11T07:07:37;101417.88;;;14.87;61.86
60974;BME280;46846;51.528;5.076;2022-09-11T07:10:04;101416.06;;;14.87;61.61
60974;BME280;46846;51.528;5.076;2022-09-11T07:12:30;101410.69;;;14.87;61.60
60974;BME280;46846;51.528;5.076;2022-09-11T07:14:56;101398.97;;;14.90;61.63
60974;BME280;46846;51.528;5.076;2022-09-11T07:17:21;101399.88;;;14.90;61.78
60974;BME280;46846;51.528;5.076;2022-09-11T07:19:47;101397.97;;;14.93;62.38
60974;BME280;46846;51.528;5.076;2022-09-11T07:22:12;101399.72;;;14.94;61.46
60974;BME280;46846;51.528;5.076;2022-09-11T07:24:39;101398.72;;;14.96;63.05
60974;BME280;46846;51.528;5.076;2022-09-11T07:27:05;101399.66;;;14.95;61.97
60974;BME280;46846;51.528;5.076;2022-09-11T07:29:30;101402.19;;;14.98;62.02
60974;BME280;46846;51.528;5.076;2022-09-11T07:31:56;101402.34;;;14.95;61.38
60974;BME280;46846;51.528;5.076;2022-09-11T07:34:22;101403.19;;;14.96;61.44
60974;BME280;46846;51.528;5.076;2022-09-11T07:36:48;101403.94;;;14.99;61.83
60974;BME280;46846;51.528;5.076;2022-09-11T07:39:16;101399.50;;;14.98;61.74
60974;BME280;46846;51.528;5.076;2022-09-11T07:41:41;101408.28;;;15.02;61.80
60974;BME280;46846;51.528;5.076;2022-09-11T07:44:07;101407.56;;;14.98;61.71
60974;BME280;46846;51.528;5.076;2022-09-11T07:46:32;101412.78;;;15.01;61.52
60974;BME280;46846;51.528;5.076;2022-09-11T07:48:58;101406.50;;;15.02;61.56
60974;BME280;46846;51.528;5.076;2022-09-11T07:51:26;101411.75;;;15.04;61.66
60974;BME280;46846;51.528;5.076;2022-09-11T07:53:52;101412.66;;;15.04;61.85
60974;BME280;46846;51.528;5.076;2022-09-11T07:56:23;101417.28;;;15.01;61.32
60974;BME280;46846;51.528;5.076;2022-09-11T07:58:49;101419.16;;;14.99;61.98
60974;BME280;46846;51.528;5.076;2022-09-11T08:01:25;101419.16;;;14.99;61.74
60974;BME280;46846;51.528;5.076;2022-09-11T08:03:56;101420.75;;;15.03;61.57
60974;BME280;46846;51.528;5.076;2022-09-11T08:06:22;101426.78;;;15.08;62.26
60974;BME280;46846;51.528;5.076;2022-09-11T08:08:56;101430.19;;;15.12;61.72
60974;BME280;46846;51.528;5.076;2022-09-11T08:11:24;101425.41;;;15.18;63.92
60974;BME280;46846;51.528;5.076;2022-09-11T08:13:50;101429.78;;;15.21;62.58
60974;BME280;46846;51.528;5.076;2022-09-11T08:16:17;101432.34;;;15.24;62.28
60974;BME280;46846;51.528;5.076;2022-09-11T08:18:43;101429.50;;;15.27;62.31
60974;BME280;46846;51.528;5.076;2022-09-11T08:21:10;101430.66;;;15.22;62.15
60974;BME280;46846;51.528;5.076;2022-09-11T08:23:37;101427.78;;;15.26;62.80
60974;BME280;46846;51.528;5.076;2022-09-11T08:26:11;101441.97;;;15.28;63.29
60974;BME280;46846;51.528;5.076;2022-09-11T08:28:38;101430.09;;;15.34;62.92
60974;BME280;46846;51.528;5.076;2022-09-11T08:31:05;101431.56;;;15.41;64.27
60974;BME280;46846;51.528;5.076;2022-09-11T08:33:31;101435.19;;;15.40;62.56
60974;BME280;46846;51.528;5.076;2022-09-11T08:35:58;101437.13;;;15.37;62.97
60974;BME280;46846;51.528;5.076;2022-09-11T08:38:24;101441.38;;;15.42;63.13
60974;BME280;46846;51.528;5.076;2022-09-11T08:40:50;101440.28;;;15.47;63.63
60974;BME280;46846;51.528;5.076;2022-09-11T08:43:32;101442.00;;;15.48;62.65
60974;BME280;46846;51.528;5.076;2022-09-11T08:46:03;101449.78;;;15.54;64.16
60974;BME280;46846;51.528;5.076;2022-09-11T08:51:32;101445.09;;;15.59;64.31
60974;BME280;46846;51.528;5.076;2022-09-11T08:54:00;101444.00;;;15.63;62.71
60974;BME280;46846;51.528;5.076;2022-09-11T08:56:28;101449.88;;;15.71;63.77
60974;BME280;46846;51.528;5.076;2022-09-11T08:59:15;101453.22;;;15.77;63.79
60974;BME280;46846;51.528;5.076;2022-09-11T09:07:29;101454.34;;;15.92;62.64
60974;BME280;46846;51.528;5.076;2022-09-11T09:13:01;101458.84;;;15.91;64.20
60974;BME280;46846;51.528;5.076;2022-09-11T09:15:40;101463.69;;;16.02;64.09
60974;BME280;46846;51.528;5.076;2022-09-11T09:18:26;101460.72;;;16.08;63.78
60974;BME280;46846;51.528;5.076;2022-09-11T09:21:01;101464.13;;;16.12;63.49
60974;BME280;46846;51.528;5.076;2022-09-11T09:23:35;101467.38;;;16.19;64.77
60974;BME280;46846;51.528;5.076;2022-09-11T09:26:10;101468.09;;;16.22;64.68
60974;BME280;46846;51.528;5.076;2022-09-11T09:28:40;101472.75;;;16.19;63.46
60974;BME280;46846;51.528;5.076;2022-09-11T09:31:09;101477.91;;;16.23;64.99
60974;BME280;46846;51.528;5.076;2022-09-11T09:33:48;101475.94;;;16.27;64.08
60974;BME280;46846;51.528;5.076;2022-09-11T09:36:35;101474.69;;;16.34;64.22
60974;BME280;46846;51.528;5.076;2022-09-11T09:39:09;101471.00;;;16.37;64.01
60974;BME280;46846;51.528;5.076;2022-09-11T09:42:08;101476.00;;;16.45;64.03
60974;BME280;46846;51.528;5.076;2022-09-11T09:47:11;101474.66;;;16.53;63.89
60974;BME280;46846;51.528;5.076;2022-09-11T09:49:37;101474.38;;;16.60;65.07
60974;BME280;46846;51.528;5.076;2022-09-11T09:52:21;101478.41;;;16.68;64.56
60974;BME280;46846;51.528;5.076;2022-09-11T09:54:56;101475.50;;;16.73;66.13
60974;BME280;46846;51.528;5.076;2022-09-11T09:57:28;101477.22;;;16.74;65.41
60974;BME280;46846;51.528;5.076;2022-09-11T10:00:03;101480.41;;;16.83;64.44
60974;BME280;46846;51.528;5.076;2022-09-11T10:03:10;101487.38;;;16.87;64.60
60974;BME280;46846;51.528;5.076;2022-09-11T10:05:42;101478.34;;;16.88;64.32
60974;BME280;46846;51.528;5.076;2022-09-11T10:08:35;101472.34;;;17.00;65.84
60974;BME280;46846;51.528;5.076;2022-09-11T10:11:03;101471.91;;;17.10;67.06
60974;BME280;46846;51.528;5.076;2022-09-11T10:13:33;101475.03;;;17.00;64.46
60974;BME280;46846;51.528;5.076;2022-09-11T10:16:03;101472.94;;;17.07;64.58
60974;BME280;46846;51.528;5.076;2022-09-11T10:21:23;101473.63;;;17.11;64.06
60974;BME280;46846;51.528;5.076;2022-09-11T10:23:56;101473.00;;;17.23;64.57
60974;BME280;46846;51.528;5.076;2022-09-11T10:29:10;101463.81;;;17.27;63.57
60974;BME280;46846;51.528;5.076;2022-09-11T10:31:40;101463.50;;;17.33;64.11
60974;BME280;46846;51.528;5.076;2022-09-11T10:34:15;101465.69;;;17.43;64.98
60974;BME280;46846;51.528;5.076;2022-09-11T10:36:53;101471.78;;;17.46;64.81
60974;BME280;46846;51.528;5.076;2022-09-11T10:39:21;101473.28;;;17.52;65.51
60974;BME280;46846;51.528;5.076;2022-09-11T10:41:48;101463.31;;;17.54;64.90
60974;BME280;46846;51.528;5.076;2022-09-11T10:44:17;101471.19;;;17.57;64.49
60974;BME280;46846;51.528;5.076;2022-09-11T10:46:45;101470.34;;;17.57;63.59
60974;BME280;46846;51.528;5.076;2022-09-11T10:49:26;101462.00;;;17.61;63.93
60974;BME280;46846;51.528;5.076;2022-09-11T10:52:15;101463.69;;;17.64;63.46
60974;BME280;46846;51.528;5.076;2022-09-11T10:55:02;101468.72;;;17.70;64.02
60974;BME280;46846;51.528;5.076;2022-09-11T11:00:28;101462.91;;;17.78;63.15
60974;BME280;46846;51.528;5.076;2022-09-11T11:02:57;101461.00;;;17.80;63.56
60974;BME280;46846;51.528;5.076;2022-09-11T11:05:32;101456.31;;;17.84;63.92
60974;BME280;46846;51.528;5.076;2022-09-11T11:11:16;101452.94;;;17.96;63.33
60974;BME280;46846;51.528;5.076;2022-09-11T11:20:12;101449.22;;;17.99;62.75
60974;BME280;46846;51.528;5.076;2022-09-11T11:23:11;101448.06;;;18.03;62.53
60974;BME280;46846;51.528;5.076;2022-09-11T11:34:15;101450.28;;;18.12;62.76
60974;BME280;46846;51.528;5.076;2022-09-11T11:37:11;101442.09;;;18.14;62.64
60974;BME280;46846;51.528;5.076;2022-09-11T11:39:59;101444.28;;;18.23;62.58
60974;BME280;46846;51.528;5.076;2022-09-11T11:44:57;101451.75;;;18.34;62.76
60974;BME280;46846;51.528;5.076;2022-09-11T11:47:29;101447.91;;;18.38;63.04
60974;BME280;46846;51.528;5.076;2022-09-11T11:55:21;101451.44;;;18.55;63.54
60974;BME280;46846;51.528;5.076;2022-09-11T11:57:57;101445.22;;;18.54;62.67
60974;BME280;46846;51.528;5.076;2022-09-11T12:00:27;101437.97;;;18.55;62.23
60974;BME280;46846;51.528;5.076;2022-09-11T12:03:09;101440.38;;;18.59;62.60
60974;BME280;46846;51.528;5.076;2022-09-11T12:05:37;101442.56;;;18.69;62.19
60974;BME280;46846;51.528;5.076;2022-09-11T12:08:03;101442.38;;;18.72;62.50
60974;BME280;46846;51.528;5.076;2022-09-11T12:13:04;101442.38;;;18.72;61.93
60974;BME280;46846;51.528;5.076;2022-09-11T12:15:32;101441.53;;;18.71;62.13
60974;BME280;46846;51.528;5.076;2022-09-11T12:20:38;101440.44;;;18.74;61.68
60974;BME280;46846;51.528;5.076;2022-09-11T12:23:06;101432.34;;;18.74;61.78
60974;BME280;46846;51.528;5.076;2022-09-11T12:26:04;101430.63;;;18.73;60.74
60974;BME280;46846;51.528;5.076;2022-09-11T12:28:30;101430.19;;;18.81;61.62
60974;BME280;46846;51.528;5.076;2022-09-11T12:31:08;101428.25;;;18.83;62.24
60974;BME280;46846;51.528;5.076;2022-09-11T12:36:14;101419.44;;;18.95;61.58
60974;BME280;46846;51.528;5.076;2022-09-11T12:41:50;101415.00;;;18.94;61.13
60974;BME280;46846;51.528;5.076;2022-09-11T12:47:36;101414.59;;;19.00;60.50
60974;BME280;46846;51.528;5.076;2022-09-11T12:50:21;101410.81;;;19.05;60.95
60974;BME280;46846;51.528;5.076;2022-09-11T12:52:53;101410.72;;;19.06;61.56
60974;BME280;46846;51.528;5.076;2022-09-11T12:55:37;101411.56;;;19.07;60.88
60974;BME280;46846;51.528;5.076;2022-09-11T13:00:46;101411.97;;;19.15;60.30
60974;BME280;46846;51.528;5.076;2022-09-11T13:03:19;101410.91;;;19.18;59.62
60974;BME280;46846;51.528;5.076;2022-09-11T13:05:53;101403.41;;;19.23;59.56
60974;BME280;46846;51.528;5.076;2022-09-11T13:08:21;101405.81;;;19.27;59.06
60974;BME280;46846;51.528;5.076;2022-09-11T13:10:48;101405.72;;;19.29;59.76
60974;BME280;46846;51.528;5.076;2022-09-11T13:16:16;101393.66;;;19.35;59.46
60974;BME280;46846;51.528;5.076;2022-09-11T13:18:42;101394.72;;;19.32;60.07
60974;BME280;46846;51.528;5.076;2022-09-11T13:23:33;101380.84;;;19.38;59.60
60974;BME280;46846;51.528;5.076;2022-09-11T13:25:59;101380.47;;;19.45;58.47
60974;BME280;46846;51.528;5.076;2022-09-11T13:28:26;101379.50;;;19.46;59.52
60974;BME280;46846;51.528;5.076;2022-09-11T13:31:02;101368.63;;;19.47;59.84
60974;BME280;46846;51.528;5.076;2022-09-11T13:33:29;101369.00;;;19.56;58.33
60974;BME280;46846;51.528;5.076;2022-09-11T13:35:58;101368.69;;;19.60;58.58
60974;BME280;46846;51.528;5.076;2022-09-11T13:38:30;101373.88;;;19.63;58.62
60974;BME280;46846;51.528;5.076;2022-09-11T13:41:02;101373.41;;;19.57;59.13
60974;BME280;46846;51.528;5.076;2022-09-11T13:43:34;101363.28;;;19.60;57.29
60974;BME280;46846;51.528;5.076;2022-09-11T13:48:33;101349.47;;;19.65;59.90
60974;BME280;46846;51.528;5.076;2022-09-11T13:50:59;101350.91;;;19.71;58.89
60974;BME280;46846;51.528;5.076;2022-09-11T13:53:25;101346.31;;;19.73;58.71
60974;BME280;46846;51.528;5.076;2022-09-11T13:55:51;101346.66;;;19.81;58.09
60974;BME280;46846;51.528;5.076;2022-09-11T13:58:27;101345.59;;;19.84;58.75
60974;BME280;46846;51.528;5.076;2022-09-11T14:00:55;101355.44;;;19.85;58.94
60974;BME280;46846;51.528;5.076;2022-09-11T14:03:33;101349.81;;;19.88;58.75
60974;BME280;46846;51.528;5.076;2022-09-11T14:06:00;101349.72;;;19.89;58.86
60974;BME280;46846;51.528;5.076;2022-09-11T14:08:32;101356.25;;;20.00;57.44
60974;BME280;46846;51.528;5.076;2022-09-11T14:11:05;101350.47;;;20.06;57.46
60974;BME280;46846;51.528;5.076;2022-09-11T14:16:30;101353.06;;;20.07;58.53
60974;BME280;46846;51.528;5.076;2022-09-11T14:21:33;101355.88;;;20.06;57.95
60974;BME280;46846;51.528;5.076;2022-09-11T14:24:00;101344.75;;;20.11;57.91
60974;BME280;46846;51.528;5.076;2022-09-11T14:29:26;101349.97;;;20.14;58.27
60974;BME280;46846;51.528;5.076;2022-09-11T14:31:53;101352.34;;;20.18;57.76
60974;BME280;46846;51.528;5.076;2022-09-11T14:34:28;101343.16;;;20.21;56.07
60974;BME280;46846;51.528;5.076;2022-09-11T14:37:10;101338.72;;;20.20;58.32
60974;BME280;46846;51.528;5.076;2022-09-11T14:39:41;101340.03;;;20.27;54.64
60974;BME280;46846;51.528;5.076;2022-09-11T14:42:13;101347.81;;;20.32;54.94
60974;BME280;46846;51.528;5.076;2022-09-11T14:44:40;101335.09;;;20.34;56.48
60974;BME280;46846;51.528;5.076;2022-09-11T14:47:13;101337.75;;;20.21;58.11
60974;BME280;46846;51.528;5.076;2022-09-11T14:49:41;101330.59;;;20.20;57.98